createdAt,value
2022-10-21T00:01:00.459Z,13.47
2022-10-21T00:03:28.733Z,13.60
2022-10-21T00:05:56.710Z,11.97
2022-10-21T00:08:27.221Z,22.03
2022-10-21T00:10:56.536Z,15.63
2022-10-21T00:13:25.199Z,15.33
2022-10-21T00:16:02.284Z,16.13
2022-10-21T00:18:34.101Z,10.53
2022-10-21T00:21:02.205Z,12.43
2022-10-21T00:23:29.894Z,15.90
2022-10-21T00:25:58.376Z,14.47
2022-10-21T00:28:26.888Z,11.83
2022-10-21T00:30:57.939Z,18.47
2022-10-21T00:33:29.297Z,12.53
2022-10-21T00:36:02.932Z,11.37
2022-10-21T00:38:31.169Z,12.33
2022-10-21T00:40:59.320Z,15.27
2022-10-21T00:43:28.252Z,17.60
2022-10-21T00:46:00.661Z,12.23
2022-10-21T00:48:34.996Z,18.03
2022-10-21T00:51:07.864Z,10.67
2022-10-21T00:53:37.779Z,10.67
2022-10-21T00:56:14.104Z,23.23
2022-10-21T00:58:47.480Z,11.33
2022-10-21T01:01:19.150Z,18.40
2022-10-21T01:03:51.446Z,13.40
2022-10-21T01:06:21.670Z,9.90
2022-10-21T01:08:49.550Z,9.63
2022-10-21T01:11:20.327Z,9.83
2022-10-21T01:14:11.190Z,12.73
2022-10-21T01:16:48.261Z,10.73
2022-10-21T01:20:03.280Z,9.43
2022-10-21T01:22:52.158Z,11.37
2022-10-21T01:25:49.237Z,11.20
2022-10-21T01:28:29.048Z,11.17
2022-10-21T01:31:00.306Z,12.67
2022-10-21T01:33:43.913Z,11.80
2022-10-21T01:36:29.229Z,8.70
2022-10-21T01:39:18.922Z,9.00
2022-10-21T01:41:53.434Z,12.67
2022-10-21T01:44:28.870Z,11.83
2022-10-21T01:47:01.574Z,11.67
2022-10-21T01:49:33.155Z,18.93
2022-10-21T01:52:02.709Z,14.57
2022-10-21T01:54:34.788Z,12.17
2022-10-21T01:57:04.149Z,11.33
2022-10-21T01:59:33.747Z,13.90
2022-10-21T02:02:07.783Z,10.33
2022-10-21T02:04:37.346Z,12.13
2022-10-21T02:07:07.214Z,9.33
2022-10-21T02:09:34.932Z,21.07
2022-10-21T02:12:06.150Z,20.07
2022-10-21T02:14:37.673Z,16.93
2022-10-21T02:17:11.031Z,15.50
2022-10-21T02:19:38.836Z,15.90
2022-10-21T02:22:08.298Z,17.80
2022-10-21T02:24:43.180Z,14.97
2022-10-21T02:27:11.102Z,12.30
2022-10-21T02:29:43.229Z,15.70
2022-10-21T02:32:23.363Z,12.00
2022-10-21T02:35:14.095Z,19.13
2022-10-21T02:37:50.727Z,14.47
2022-10-21T02:40:22.059Z,22.07
2022-10-21T02:42:54.936Z,21.80
2022-10-21T02:45:23.670Z,20.83
2022-10-21T02:47:52.830Z,21.03
2022-10-21T02:50:21.339Z,18.53
2022-10-21T02:52:49.157Z,12.43
2022-10-21T02:55:17.206Z,10.37
2022-10-21T02:57:44.867Z,19.97
2022-10-21T03:00:14.203Z,16.57
2022-10-21T03:02:42.668Z,21.67
2022-10-21T03:05:12.901Z,20.10
2022-10-21T03:07:41.359Z,13.03
2022-10-21T03:10:10.081Z,14.30
2022-10-21T03:12:37.744Z,17.13
2022-10-21T03:15:06.019Z,19.37
2022-10-21T03:17:33.683Z,19.97
2022-10-21T03:20:03.491Z,18.27
2022-10-21T03:22:33.815Z,22.63
2022-10-21T03:25:01.514Z,21.73
2022-10-21T03:27:29.401Z,19.03
2022-10-21T03:29:57.087Z,19.60
2022-10-21T03:32:24.871Z,18.90
2022-10-21T03:34:52.994Z,19.50
2022-10-21T03:37:20.775Z,21.33
2022-10-21T03:39:49.940Z,18.10
2022-10-21T03:42:17.668Z,24.00
2022-10-21T03:44:45.356Z,15.93
2022-10-21T03:47:15.485Z,16.80
2022-10-21T03:49:43.222Z,17.33
2022-10-21T03:52:14.280Z,14.63
2022-10-21T03:54:42.028Z,17.00
2022-10-21T03:57:11.386Z,16.97
2022-10-21T03:59:39.305Z,16.70
2022-10-21T04:02:07.121Z,15.60
2022-10-21T04:04:34.929Z,19.50
2022-10-21T04:07:02.594Z,19.77
2022-10-21T04:09:30.299Z,20.90
2022-10-21T04:11:58.274Z,13.60
2022-10-21T04:14:27.469Z,17.07
2022-10-21T04:17:06.447Z,11.77
2022-10-21T04:19:35.024Z,14.03
2022-10-21T04:22:02.747Z,16.77
2022-10-21T04:24:30.612Z,12.80
2022-10-21T04:26:58.570Z,12.10
2022-10-21T04:29:27.611Z,12.53
2022-10-21T04:34:28.151Z,11.43
2022-10-21T04:36:57.914Z,11.77
2022-10-21T04:39:27.605Z,13.97
2022-10-21T04:41:55.948Z,16.07
2022-10-21T04:44:23.749Z,8.03
2022-10-21T04:46:52.815Z,11.17
2022-10-21T04:49:20.972Z,11.80
2022-10-21T04:51:48.729Z,11.73
2022-10-21T04:54:16.716Z,12.83
2022-10-21T04:56:44.555Z,16.10
2022-10-21T04:59:12.452Z,16.77
2022-10-21T05:01:42.329Z,13.37
2022-10-21T05:04:11.625Z,17.47
2022-10-21T05:06:39.429Z,14.70
2022-10-21T05:09:07.223Z,13.27
2022-10-21T05:11:35.005Z,14.00
2022-10-21T05:14:02.812Z,11.93
2022-10-21T05:16:30.988Z,11.20
2022-10-21T05:19:00.155Z,13.47
2022-10-21T05:21:29.479Z,11.27
2022-10-21T05:23:58.275Z,21.63
2022-10-21T05:26:26.072Z,12.17
2022-10-21T05:28:53.957Z,16.77
2022-10-21T05:31:21.740Z,16.57
2022-10-21T05:33:49.449Z,14.03
2022-10-21T05:36:18.506Z,18.33
2022-10-21T05:38:49.704Z,19.67
2022-10-21T05:41:17.443Z,14.50
2022-10-21T05:43:45.227Z,19.63
2022-10-21T05:46:15.162Z,27.70
2022-10-21T05:48:42.957Z,27.83
2022-10-21T05:51:10.763Z,17.73
2022-10-21T05:53:39.778Z,16.77
2022-10-21T05:56:11.667Z,15.40
2022-10-21T05:58:39.442Z,16.17
2022-10-21T06:01:07.485Z,16.43
2022-10-21T06:03:35.419Z,14.80
2022-10-21T06:06:08.113Z,14.23
2022-10-21T06:08:40.034Z,14.73
2022-10-21T06:11:09.748Z,10.40
2022-10-21T06:13:39.506Z,16.57
2022-10-21T06:16:08.865Z,13.87
2022-10-21T06:18:36.935Z,14.30
2022-10-21T06:21:05.218Z,18.10
2022-10-21T06:23:32.973Z,18.60
2022-10-21T06:26:02.840Z,14.00
2022-10-21T06:28:33.064Z,15.37
2022-10-21T06:31:02.356Z,12.20
2022-10-21T06:33:30.089Z,13.20
2022-10-21T06:35:58.108Z,14.30
2022-10-21T06:38:26.949Z,8.73
2022-10-21T06:41:01.452Z,11.60
2022-10-21T06:43:29.429Z,13.47
2022-10-21T06:46:02.497Z,13.27
2022-10-21T06:48:30.564Z,9.20
2022-10-21T06:51:02.310Z,11.13
2022-10-21T06:53:32.071Z,9.40
2022-10-21T06:56:03.014Z,10.83
2022-10-21T06:58:31.131Z,10.70
2022-10-21T07:00:58.931Z,8.80
2022-10-21T07:03:30.034Z,12.00
2022-10-21T07:06:01.517Z,12.00
2022-10-21T07:08:46.196Z,7.13
2022-10-21T07:11:15.725Z,11.80
2022-10-21T07:13:43.627Z,8.63
2022-10-21T07:16:25.868Z,13.13
2022-10-21T07:18:55.365Z,11.23
2022-10-21T07:21:25.712Z,15.87
2022-10-21T07:23:56.644Z,9.27
2022-10-21T07:26:28.893Z,9.13
2022-10-21T07:28:58.707Z,11.60
2022-10-21T07:31:26.944Z,7.50
2022-10-21T07:33:56.333Z,9.20
2022-10-21T07:36:26.384Z,8.73
2022-10-21T07:38:56.157Z,8.60
2022-10-21T07:41:26.471Z,8.20
2022-10-21T07:43:54.838Z,11.73
2022-10-21T07:46:23.769Z,11.63
2022-10-21T07:48:51.981Z,13.20
2022-10-21T07:51:27.040Z,8.03
2022-10-21T07:53:58.112Z,7.83
2022-10-21T07:56:28.436Z,12.57
2022-10-21T07:58:56.482Z,8.40
2022-10-21T08:01:24.711Z,11.17
2022-10-21T08:03:54.455Z,10.80
2022-10-21T08:06:25.760Z,12.97
2022-10-21T08:08:53.875Z,10.10
2022-10-21T08:11:23.052Z,11.40
2022-10-21T08:13:51.165Z,14.38
2022-10-21T08:16:19.008Z,10.13
2022-10-21T08:18:46.815Z,10.63
2022-10-21T08:21:14.732Z,13.20
2022-10-21T08:23:43.909Z,9.60
2022-10-21T08:26:14.321Z,11.70
2022-10-21T08:28:42.613Z,10.67
2022-10-21T08:31:12.504Z,11.97
2022-10-21T08:33:40.936Z,15.55
2022-10-21T08:36:14.294Z,9.65
2022-10-21T08:38:43.637Z,11.85
2022-10-21T08:41:22.404Z,12.30
2022-10-21T08:43:51.069Z,8.80
2022-10-21T08:46:23.562Z,13.40
2022-10-21T08:48:56.185Z,8.60
2022-10-21T08:51:28.008Z,5.70
2022-10-21T08:54:01.035Z,11.77
2022-10-21T08:56:32.185Z,11.67
2022-10-21T08:59:00.121Z,7.67
2022-10-21T09:01:33.963Z,9.60
2022-10-21T09:04:11.934Z,8.70
2022-10-21T09:06:50.391Z,9.87
2022-10-21T09:09:26.778Z,9.83
2022-10-21T09:12:04.989Z,10.43
2022-10-21T09:15:14.876Z,12.70
2022-10-21T09:17:53.470Z,9.20
2022-10-21T09:20:33.148Z,10.23
2022-10-21T09:23:12.101Z,12.53
2022-10-21T09:25:49.204Z,10.90
2022-10-21T09:28:17.770Z,7.37
2022-10-21T09:30:46.115Z,10.00
2022-10-21T09:33:24.275Z,6.88
2022-10-21T09:36:00.651Z,13.88
2022-10-21T09:38:34.747Z,14.63
2022-10-21T09:41:06.845Z,5.53
2022-10-21T09:43:34.611Z,6.68
2022-10-21T09:46:05.005Z,8.52
2022-10-21T09:49:08.126Z,12.05
2022-10-21T09:51:33.234Z,9.02
2022-10-21T09:54:08.884Z,11.73
2022-10-21T09:56:43.954Z,8.98
2022-10-21T09:59:13.354Z,8.65
2022-10-21T10:01:43.079Z,10.23
2022-10-21T10:04:12.772Z,6.10
2022-10-21T10:06:42.330Z,9.05
2022-10-21T10:09:16.367Z,5.07
2022-10-21T10:11:53.629Z,5.45
2022-10-21T10:14:30.429Z,7.63
2022-10-21T10:16:59.878Z,6.18
2022-10-21T10:19:29.430Z,9.70
2022-10-21T10:22:15.397Z,6.70
2022-10-21T10:24:44.545Z,5.35
2022-10-21T10:27:17.976Z,8.48
2022-10-21T10:29:53.331Z,9.05
2022-10-21T10:32:23.950Z,6.07
2022-10-21T10:34:57.178Z,3.20
2022-10-21T10:37:27.402Z,6.38
2022-10-21T10:39:59.063Z,5.43
2022-10-21T10:42:31.792Z,7.93
2022-10-21T10:45:05.117Z,6.18
2022-10-21T10:47:47.386Z,5.75
2022-10-21T10:50:46.751Z,5.68
2022-10-21T10:53:30.864Z,6.53
2022-10-21T10:56:07.077Z,4.57
2022-10-21T10:58:40.163Z,5.53
2022-10-21T11:01:14.514Z,4.40
2022-10-21T11:03:50.656Z,2.90
2022-10-21T11:06:22.740Z,4.00
2022-10-21T11:08:56.161Z,4.68
2022-10-21T11:11:27.818Z,5.63
2022-10-21T11:16:59.634Z,4.50
2022-10-21T11:19:35.241Z,2.65
2022-10-21T11:22:12.737Z,3.42
2022-10-21T11:24:55.391Z,3.67
2022-10-21T11:27:35.174Z,3.22
2022-10-21T11:30:10.545Z,5.07
2022-10-21T11:32:49.300Z,2.38
2022-10-21T11:35:21.765Z,3.33
2022-10-21T11:38:00.086Z,3.28
2022-10-21T11:40:33.896Z,2.92
2022-10-21T11:43:15.219Z,4.95
2022-10-21T11:45:54.851Z,5.03
2022-10-21T11:48:34.795Z,2.33
2022-10-21T11:51:16.590Z,3.55
2022-10-21T11:54:02.883Z,3.20
2022-10-21T11:56:39.786Z,5.55
2022-10-21T11:59:21.756Z,2.90
2022-10-21T12:02:01.695Z,2.65
2022-10-21T12:04:35.558Z,2.47
2022-10-21T12:07:13.766Z,2.65
2022-10-21T12:09:49.102Z,2.33
2022-10-21T12:12:21.538Z,3.53
2022-10-21T12:14:53.853Z,2.80
2022-10-21T12:17:24.593Z,3.13
2022-10-21T12:19:57.883Z,2.10
2022-10-21T12:22:28.183Z,2.00
2022-10-21T12:25:08.692Z,4.43
2022-10-21T12:27:45.324Z,1.75
2022-10-21T12:30:20.053Z,2.30
2022-10-21T12:33:13.251Z,1.42
2022-10-21T12:35:49.948Z,1.83
2022-10-21T12:38:23.965Z,1.83
2022-10-21T12:41:12.660Z,1.83
2022-10-21T12:43:40.735Z,1.27
2022-10-21T12:46:12.674Z,1.52
2022-10-21T12:48:47.020Z,1.73
2022-10-21T12:51:20.738Z,1.58
2022-10-21T12:56:30.635Z,2.03
2022-10-21T12:59:01.770Z,2.13
2022-10-21T13:01:46.248Z,2.13
2022-10-21T13:04:47.064Z,1.27
2022-10-21T13:08:10.906Z,2.55
2022-10-21T13:10:40.049Z,1.42
2022-10-21T13:13:30.892Z,1.80
2022-10-21T13:15:59.329Z,4.25
2022-10-21T13:18:58.662Z,1.65
2022-10-21T13:21:41.256Z,2.88
2022-10-21T13:24:27.952Z,1.08
2022-10-21T13:26:59.003Z,3.70
2022-10-21T13:29:34.246Z,3.15
2022-10-21T13:32:30.360Z,1.48
2022-10-21T13:35:02.650Z,2.53
2022-10-21T13:37:34.621Z,1.55
2022-10-21T13:40:05.206Z,1.55
2022-10-21T13:42:39.644Z,1.95
2022-10-21T13:45:22.097Z,2.30
2022-10-21T13:48:00.748Z,0.95
2022-10-21T13:50:30.862Z,1.02
2022-10-21T13:52:59.551Z,1.65
2022-10-21T13:55:27.782Z,1.80
2022-10-21T13:57:57.957Z,2.28
2022-10-21T14:00:28.901Z,1.88
2022-10-21T14:03:02.328Z,0.98
2022-10-21T14:05:39.577Z,1.08
2022-10-21T14:08:18.417Z,1.30
2022-10-21T14:10:47.777Z,1.88
2022-10-21T14:13:20.597Z,0.65
2022-10-21T14:15:49.113Z,1.35
2022-10-21T14:18:33.547Z,2.92
2022-10-21T14:21:06.259Z,3.42
2022-10-21T14:23:35.436Z,2.33
2022-10-21T14:26:07.654Z,1.08
2022-10-21T14:28:38.001Z,1.88
2022-10-21T14:33:39.313Z,1.83
2022-10-21T14:36:18.692Z,2.00
2022-10-21T14:39:00.394Z,2.20
2022-10-21T14:41:34.945Z,2.63
2022-10-21T14:44:14.504Z,1.42
2022-10-21T14:46:44.641Z,1.80
2022-10-21T14:49:23.673Z,1.33
2022-10-21T14:51:57.135Z,2.17
2022-10-21T14:54:30.119Z,3.88
2022-10-21T14:56:59.979Z,2.55
2022-10-21T14:59:38.169Z,2.33
2022-10-21T15:02:07.099Z,1.58
2022-10-21T15:04:44.211Z,2.78
2022-10-21T15:07:29.983Z,1.40
2022-10-21T15:10:17.661Z,2.00
2022-10-21T15:12:46.793Z,5.00
2022-10-21T15:15:54.122Z,3.55
2022-10-21T15:18:24.725Z,3.70
2022-10-21T15:20:58.668Z,1.33
2022-10-21T15:23:30.377Z,1.73
2022-10-21T15:26:01.302Z,1.40
2022-10-21T15:28:31.702Z,0.60
2022-10-21T15:31:02.448Z,2.28
2022-10-21T15:33:31.468Z,0.88
2022-10-21T15:36:04.194Z,2.67
2022-10-21T15:38:34.338Z,1.13
2022-10-21T15:41:02.760Z,2.20
2022-10-21T15:43:30.789Z,3.80
2022-10-21T15:46:00.169Z,1.80
2022-10-21T15:48:28.524Z,3.35
2022-10-21T15:50:57.907Z,2.83
2022-10-21T15:53:26.041Z,1.75
2022-10-21T15:55:55.320Z,1.77
2022-10-21T15:58:23.286Z,2.28
2022-10-21T16:00:51.565Z,1.20
2022-10-21T16:03:20.871Z,3.88
2022-10-21T16:05:48.851Z,2.78
2022-10-21T16:08:16.604Z,2.47
2022-10-21T16:10:47.901Z,2.92
2022-10-21T16:13:16.562Z,2.17
2022-10-21T16:15:44.331Z,1.05
2022-10-21T16:18:13.935Z,2.33
2022-10-21T16:20:44.217Z,2.97
2022-10-21T16:23:12.519Z,1.45
2022-10-21T16:25:40.638Z,2.10
2022-10-21T16:28:08.908Z,2.22
2022-10-21T16:30:39.223Z,1.35
2022-10-21T16:33:07.322Z,3.65
2022-10-21T16:35:35.085Z,1.02
2022-10-21T16:38:04.176Z,2.03
2022-10-21T16:40:36.146Z,2.30
2022-10-21T16:43:04.111Z,1.17
2022-10-21T16:45:33.554Z,1.75
2022-10-21T16:48:04.262Z,2.85
2022-10-21T16:50:39.367Z,1.58
2022-10-21T16:53:09.434Z,3.03
2022-10-21T16:55:37.188Z,2.92
2022-10-21T16:58:05.243Z,1.65
2022-10-21T17:00:33.048Z,1.45
2022-10-21T17:03:00.879Z,3.17
2022-10-21T17:05:28.654Z,1.80
2022-10-21T17:07:57.047Z,1.10
2022-10-21T17:10:26.264Z,3.13
2022-10-21T17:12:58.803Z,1.50
2022-10-21T17:15:28.257Z,2.00
2022-10-21T17:17:56.106Z,1.48
2022-10-21T17:20:24.115Z,2.70
2022-10-21T17:22:51.849Z,1.55
2022-10-21T17:25:19.659Z,1.42
2022-10-21T17:27:48.798Z,0.77
2022-10-21T17:30:16.731Z,1.10
2022-10-21T17:32:44.715Z,2.83
2022-10-21T17:35:18.629Z,1.25
2022-10-21T17:37:47.647Z,2.03
2022-10-21T17:40:20.831Z,2.38
2022-10-21T17:42:50.689Z,1.65
2022-10-21T17:45:19.915Z,2.70
2022-10-21T17:47:47.899Z,2.10
2022-10-21T17:50:23.456Z,1.20
2022-10-21T17:52:52.018Z,1.08
2022-10-21T17:55:20.088Z,1.05
2022-10-21T17:57:48.182Z,1.20
2022-10-21T18:00:17.504Z,2.45
2022-10-21T18:02:45.335Z,1.33
2022-10-21T18:05:20.599Z,2.75
2022-10-21T18:07:48.378Z,2.08
2022-10-21T18:10:16.299Z,1.15
2022-10-21T18:12:44.058Z,2.75
2022-10-21T18:15:13.871Z,2.22
2022-10-21T18:17:43.423Z,3.35
2022-10-21T18:20:12.019Z,2.03
2022-10-21T18:22:40.064Z,1.25
2022-10-21T18:25:08.659Z,2.85
2022-10-21T18:27:36.889Z,0.88
2022-10-21T18:30:05.716Z,1.50
2022-10-21T18:32:33.629Z,2.85
2022-10-21T18:35:03.038Z,3.78
2022-10-21T18:37:31.467Z,1.20
2022-10-21T18:39:59.210Z,1.23
2022-10-21T18:42:26.956Z,1.52
2022-10-21T18:44:54.664Z,3.35
2022-10-21T18:47:22.336Z,1.05
2022-10-21T18:49:52.225Z,1.13
2022-10-21T18:52:21.309Z,1.90
2022-10-21T18:54:51.532Z,1.88
2022-10-21T18:57:19.379Z,3.50
2022-10-21T18:59:47.271Z,6.18
2022-10-21T19:02:21.470Z,2.92
2022-10-21T19:04:51.720Z,4.00
2022-10-21T19:07:21.170Z,2.22
2022-10-21T19:09:49.026Z,2.78
2022-10-21T19:12:21.018Z,2.08
2022-10-21T19:14:53.326Z,2.95
2022-10-21T19:17:21.173Z,2.08
2022-10-21T19:19:48.927Z,3.83
2022-10-21T19:22:17.303Z,3.58
2022-10-21T19:24:46.529Z,1.27
2022-10-21T19:27:14.927Z,4.18
2022-10-21T19:29:43.435Z,1.70
2022-10-21T19:32:13.338Z,1.13
2022-10-21T19:34:41.086Z,1.20
2022-10-21T19:37:09.507Z,1.42
2022-10-21T19:39:37.280Z,1.58
2022-10-21T19:42:06.570Z,2.45
2022-10-21T19:44:34.278Z,2.75
2022-10-21T19:47:01.953Z,2.05
2022-10-21T19:49:33.080Z,2.03
2022-10-21T19:52:00.905Z,2.53
2022-10-21T19:54:28.604Z,1.98
2022-10-21T19:56:56.726Z,1.95
2022-10-21T19:59:25.967Z,2.22
2022-10-21T20:01:53.956Z,2.70
2022-10-21T20:04:22.649Z,1.48
2022-10-21T20:06:52.535Z,2.75
2022-10-21T20:09:20.322Z,2.75
2022-10-21T20:11:48.022Z,4.20
2022-10-21T20:14:15.855Z,3.13
2022-10-21T20:16:47.179Z,1.55
2022-10-21T20:19:15.314Z,3.47
2022-10-21T20:21:44.175Z,2.83
2022-10-21T20:24:14.825Z,2.97
2022-10-21T20:26:44.327Z,4.38
2022-10-21T20:29:13.142Z,4.95
2022-10-21T20:31:40.907Z,2.20
2022-10-21T20:34:12.513Z,3.13
2022-10-21T20:36:42.338Z,6.68
2022-10-21T20:39:11.891Z,2.20
2022-10-21T20:41:40.698Z,2.58
2022-10-21T20:44:12.186Z,4.68
2022-10-21T20:46:40.102Z,6.93
2022-10-21T20:49:08.365Z,4.47
2022-10-21T20:51:39.497Z,2.60
2022-10-21T20:54:09.212Z,5.25
2022-10-21T20:56:38.852Z,3.28
2022-10-21T20:59:08.910Z,3.42
2022-10-21T21:01:41.864Z,6.20
2022-10-21T21:04:11.932Z,3.05
2022-10-21T21:06:43.356Z,4.07
2022-10-21T21:14:31.714Z,3.92
2022-10-21T21:16:59.636Z,5.57
2022-10-21T21:19:27.559Z,3.50
2022-10-21T21:21:56.850Z,3.40
2022-10-21T21:24:24.676Z,4.53
2022-10-21T21:26:53.300Z,3.65
2022-10-21T21:29:21.060Z,3.45
2022-10-21T21:31:49.030Z,5.53
2022-10-21T21:34:17.255Z,2.50
2022-10-21T21:36:45.078Z,3.85
2022-10-21T21:41:42.892Z,2.10
2022-10-21T21:44:10.604Z,5.40
2022-10-21T21:46:38.369Z,5.43
2022-10-21T21:49:06.701Z,4.28
2022-10-21T21:51:36.135Z,2.13
2022-10-21T21:54:05.376Z,4.70
2022-10-21T21:56:35.468Z,2.30
2022-10-21T21:59:03.206Z,2.17
2022-10-21T22:01:31.128Z,2.42
2022-10-21T22:03:59.304Z,4.40
2022-10-21T22:06:30.739Z,1.25
2022-10-21T22:08:59.182Z,1.75
2022-10-21T22:11:29.113Z,1.70
2022-10-21T22:13:58.189Z,1.73
2022-10-21T22:16:29.996Z,1.50
2022-10-21T22:18:59.854Z,3.55
2022-10-21T22:21:28.405Z,2.78
2022-10-21T22:23:56.217Z,1.15
2022-10-21T22:26:26.553Z,1.83
2022-10-21T22:28:54.358Z,1.25
2022-10-21T22:31:29.523Z,1.55
2022-10-21T22:34:00.191Z,0.95
2022-10-21T22:36:28.667Z,0.70
2022-10-21T22:38:58.970Z,2.25
2022-10-21T22:41:26.927Z,1.42
2022-10-21T22:43:54.723Z,1.38
2022-10-21T22:46:34.185Z,1.25
2022-10-21T22:49:04.906Z,0.75
2022-10-21T22:51:32.970Z,1.70
2022-10-21T22:54:01.595Z,1.63
2022-10-21T22:56:29.982Z,2.10
2022-10-21T22:58:58.175Z,3.83
2022-10-21T23:01:28.851Z,2.73
2022-10-21T23:04:02.568Z,2.57
2022-10-21T23:06:32.402Z,0.85
2022-10-21T23:09:01.223Z,1.00
2022-10-21T23:11:29.779Z,1.37
2022-10-21T23:14:03.398Z,1.90
2022-10-21T23:16:35.524Z,0.93
2022-10-21T23:19:03.370Z,2.70
2022-10-21T23:21:32.502Z,1.10
2022-10-21T23:24:00.351Z,3.57
2022-10-21T23:26:28.165Z,0.60
2022-10-21T23:28:55.961Z,1.60
2022-10-21T23:31:23.844Z,2.67
2022-10-21T23:33:51.667Z,1.00
2022-10-21T23:36:19.392Z,0.97
2022-10-21T23:38:48.728Z,1.88
2022-10-21T23:41:16.576Z,4.50
2022-10-21T23:43:44.291Z,0.50
2022-10-21T23:46:12.006Z,0.73
2022-10-21T23:48:39.789Z,1.53
2022-10-21T23:51:07.589Z,1.23
2022-10-21T23:53:35.358Z,2.77
2022-10-21T23:56:04.940Z,1.87
2022-10-21T23:58:32.681Z,2.33
